Shalalth, Canada
Current Conditions -  °F | °C
As of 12:00 PM on Monday 24 Nov 2014 (Local Time) from CYIN Reporting Station
Overcast Overcast  
Wind Chill: 19°   Ceiling: 12000
Heat Index: 30°   Visibility: 9mi
Dew Point: 27°   Wind: 15mph
Humidity: 86%   Direction: 150°SSE
Pressure: 29.91"   Gusts: 22mph
Location:  50.73°N, 122.23°W
Report Text: CYIN 242000Z AUTO 15013G19KT 9SM OVC120 M01/M03 A2991 RMK SLP178
Loading
Personal Weather Stations






























Interactive Weather Map New forecast layout! Learn more

10-Day Weather Forecast

Advertisements
Track Severe Weather on mobile